Terminal Aerodrome Forecast
Issued by NWS Cleveland, OH

Home | Current Version | Previous Version | Text Only | Print | Product List | Glossary On
Versions: 1 2 3 4 5 6 7 8 9 10 11 12 13 14 15 16
000
FTUS41 KCLE 170109 AAB
TAFTOL
TAF AMD
KTOL 170109Z 1701/1724 09005KT 2SM -RA BR OVC002
      TEMPO 1701/1705 1/2SM -RA FG VV002
     FM171100 17005KT 2SM -RA BR OVC003
     FM171500 25010G18KT 4SM BR OVC008=

USA.gov is the U.S. government's official web portal to all federal, state and local government web resources and services.